createdAt,value
2022-10-08T00:01:12.578Z,10.97
2022-10-08T00:03:43.601Z,10.85
2022-10-08T00:06:18.197Z,10.84
2022-10-08T00:08:50.065Z,10.78
2022-10-08T00:11:20.939Z,10.85
2022-10-08T00:13:50.426Z,10.89
2022-10-08T00:16:30.007Z,10.93
2022-10-08T00:19:03.842Z,10.89
2022-10-08T00:21:36.977Z,10.82
2022-10-08T00:24:05.741Z,10.82
2022-10-08T00:26:39.816Z,10.77
2022-10-08T00:29:13.593Z,10.66
2022-10-08T00:31:42.164Z,10.83
2022-10-08T00:34:11.594Z,10.91
2022-10-08T00:36:40.405Z,10.91
2022-10-08T00:39:16.825Z,10.92
2022-10-08T00:41:45.923Z,10.85
2022-10-08T00:44:47.295Z,10.88
2022-10-08T00:47:22.546Z,10.82
2022-10-08T00:49:51.565Z,10.86
2022-10-08T00:52:19.843Z,10.80
2022-10-08T00:54:46.861Z,10.83
2022-10-08T00:57:14.055Z,10.79
2022-10-08T00:59:41.135Z,10.74
2022-10-08T01:02:09.129Z,10.84
2022-10-08T01:04:37.792Z,10.80
2022-10-08T01:07:23.562Z,10.84
2022-10-08T01:10:19.764Z,10.86
2022-10-08T01:12:47.544Z,10.89
2022-10-08T01:15:31.971Z,10.97
2022-10-08T01:18:32.407Z,10.95
2022-10-08T01:21:10.133Z,11.01
2022-10-08T01:23:47.492Z,10.92
2022-10-08T01:26:46.610Z,10.85
2022-10-08T01:29:23.175Z,10.75
2022-10-08T01:32:01.961Z,10.72
2022-10-08T01:34:45.098Z,10.78
2022-10-08T01:37:21.652Z,10.75
2022-10-08T01:39:52.529Z,10.71
2022-10-08T01:42:23.416Z,10.68
2022-10-08T01:44:55.162Z,10.53
2022-10-08T01:47:27.982Z,10.60
2022-10-08T01:50:07.747Z,10.50
2022-10-08T01:52:44.040Z,10.37
2022-10-08T01:55:17.038Z,10.46
2022-10-08T01:57:45.661Z,10.45
2022-10-08T02:00:14.871Z,10.30
2022-10-08T02:02:43.175Z,10.27
2022-10-08T02:05:11.730Z,10.28
2022-10-08T02:07:42.515Z,10.23
2022-10-08T02:10:18.881Z,10.15
2022-10-08T02:12:46.317Z,10.00
2022-10-08T02:15:23.702Z,10.08
2022-10-08T02:18:07.874Z,10.03
2022-10-08T02:20:39.913Z,10.12
2022-10-08T02:23:53.352Z,10.06
2022-10-08T02:26:32.069Z,10.02
2022-10-08T02:29:25.176Z,10.11
2022-10-08T02:32:02.038Z,9.74
2022-10-08T02:34:43.990Z,10.00
2022-10-08T02:37:13.153Z,9.96
2022-10-08T02:39:44.056Z,9.94
2022-10-08T02:42:15.544Z,9.95
2022-10-08T02:44:49.680Z,9.89
2022-10-08T02:47:19.890Z,9.83
2022-10-08T02:49:56.235Z,9.79
2022-10-08T02:52:27.371Z,9.80
2022-10-08T02:54:56.484Z,9.86
2022-10-08T02:57:41.047Z,9.84
2022-10-08T03:00:08.659Z,9.78
2022-10-08T03:02:47.437Z,9.83
2022-10-08T03:05:19.371Z,9.80
2022-10-08T03:07:48.890Z,9.80
2022-10-08T03:10:15.844Z,9.66
2022-10-08T03:12:42.793Z,9.65
2022-10-08T03:15:13.705Z,9.58
2022-10-08T03:17:45.058Z,9.53
2022-10-08T03:20:12.630Z,9.49
2022-10-08T03:22:39.963Z,9.50
2022-10-08T03:25:07.119Z,9.51
2022-10-08T03:27:35.337Z,9.50
2022-10-08T03:30:04.011Z,9.45
2022-10-08T03:32:30.830Z,9.45
2022-10-08T03:34:57.766Z,9.41
2022-10-08T03:37:24.971Z,9.42
2022-10-08T03:39:52.270Z,9.34
2022-10-08T03:42:19.276Z,9.34
2022-10-08T03:44:46.055Z,9.29
2022-10-08T03:47:13.040Z,9.22
2022-10-08T03:49:41.212Z,9.24
2022-10-08T03:52:08.249Z,9.22
2022-10-08T03:54:36.093Z,9.19
2022-10-08T03:57:03.607Z,9.17
2022-10-08T03:59:30.503Z,9.11
2022-10-08T04:01:57.452Z,9.12
2022-10-08T04:04:25.718Z,9.11
2022-10-08T04:06:52.873Z,9.09
2022-10-08T04:09:19.608Z,9.10
2022-10-08T04:11:46.763Z,9.10
2022-10-08T04:14:13.536Z,9.14
2022-10-08T04:16:40.666Z,9.13
2022-10-08T04:19:07.468Z,9.13
2022-10-08T04:21:34.315Z,9.18
2022-10-08T04:24:01.115Z,9.07
2022-10-08T04:26:28.341Z,9.07
2022-10-08T04:28:55.224Z,9.07
2022-10-08T04:31:23.561Z,9.11
2022-10-08T04:33:52.126Z,9.00
2022-10-08T04:36:22.081Z,9.01
2022-10-08T04:38:49.969Z,9.03
2022-10-08T04:41:24.518Z,9.11
2022-10-08T04:43:52.633Z,9.10
2022-10-08T04:46:21.318Z,9.06
2022-10-08T04:48:52.685Z,9.08
2022-10-08T04:51:21.061Z,9.09
2022-10-08T04:53:47.846Z,9.11
2022-10-08T04:56:17.875Z,9.21
2022-10-08T04:58:45.244Z,9.23
2022-10-08T05:01:14.730Z,9.24
2022-10-08T05:03:46.366Z,9.28
2022-10-08T05:06:15.003Z,9.35
2022-10-08T05:08:41.905Z,9.37
2022-10-08T05:11:09.211Z,9.39
2022-10-08T05:13:36.134Z,9.41
2022-10-08T05:16:14.179Z,9.40
2022-10-08T05:18:42.009Z,9.51
2022-10-08T05:21:12.360Z,9.58
2022-10-08T05:23:40.022Z,9.64
2022-10-08T05:26:12.915Z,9.76
2022-10-08T05:28:40.175Z,9.78
2022-10-08T05:31:07.094Z,9.94
2022-10-08T05:33:36.161Z,10.11
2022-10-08T05:36:05.762Z,10.28
2022-10-08T05:38:35.081Z,10.36
2022-10-08T05:41:24.514Z,10.37
2022-10-08T05:43:53.685Z,10.31
2022-10-08T05:46:21.075Z,10.50
2022-10-08T05:48:48.186Z,10.67
2022-10-08T05:51:17.675Z,10.71
2022-10-08T05:53:47.193Z,10.62
2022-10-08T05:56:16.622Z,10.75
2022-10-08T05:58:44.268Z,10.73
2022-10-08T06:01:16.615Z,10.93
2022-10-08T06:03:44.037Z,11.03
2022-10-08T06:06:12.003Z,11.14
2022-10-08T06:08:39.101Z,11.27
2022-10-08T06:11:06.458Z,11.37
2022-10-08T06:13:34.527Z,11.51
2022-10-08T06:16:07.322Z,11.69
2022-10-08T06:18:40.114Z,11.78
2022-10-08T06:21:12.177Z,11.91
2022-10-08T06:23:45.465Z,12.01
2022-10-08T06:26:12.680Z,12.04
2022-10-08T06:28:40.190Z,12.31
2022-10-08T06:31:08.414Z,12.39
2022-10-08T06:33:35.351Z,12.49
2022-10-08T06:36:07.650Z,12.62
2022-10-08T06:38:34.923Z,12.81
2022-10-08T06:41:02.124Z,12.99
2022-10-08T06:43:29.454Z,13.11
2022-10-08T06:45:59.921Z,13.24
2022-10-08T06:48:27.656Z,13.44
2022-10-08T06:51:03.317Z,13.53
2022-10-08T06:53:30.844Z,13.65
2022-10-08T06:56:03.108Z,13.87
2022-10-08T06:58:30.273Z,13.95
2022-10-08T07:01:11.140Z,14.10
2022-10-08T07:03:38.397Z,14.21
2022-10-08T07:06:09.134Z,14.38
2022-10-08T07:08:36.473Z,14.50
2022-10-08T07:11:07.762Z,14.67
2022-10-08T07:13:34.878Z,14.72
2022-10-08T07:16:09.214Z,14.87
2022-10-08T07:18:37.985Z,15.04
2022-10-08T07:21:06.310Z,15.15
2022-10-08T07:23:33.774Z,15.26
2022-10-08T07:26:03.495Z,15.41
2022-10-08T07:28:34.531Z,15.60
2022-10-08T07:31:11.837Z,15.75
2022-10-08T07:33:40.745Z,15.85
2022-10-08T07:36:09.354Z,15.94
2022-10-08T07:38:37.140Z,16.18
2022-10-08T07:41:04.362Z,16.29
2022-10-08T07:43:31.318Z,16.42
2022-10-08T07:45:58.499Z,16.53
2022-10-08T07:48:25.371Z,16.63
2022-10-08T07:50:52.338Z,16.70
2022-10-08T07:53:19.218Z,16.84
2022-10-08T07:55:46.262Z,16.95
2022-10-08T07:58:13.826Z,17.07
2022-10-08T08:00:41.213Z,17.24
2022-10-08T08:03:13.430Z,17.36
2022-10-08T08:05:40.699Z,17.46
2022-10-08T08:08:07.590Z,17.55
2022-10-08T08:10:34.542Z,17.81
2022-10-08T08:13:01.438Z,17.77
2022-10-08T08:15:28.420Z,17.90
2022-10-08T08:17:55.210Z,17.93
2022-10-08T08:20:22.126Z,18.12
2022-10-08T08:22:49.319Z,17.93
2022-10-08T08:25:16.557Z,18.12
2022-10-08T08:27:43.601Z,18.23
2022-10-08T08:30:11.006Z,18.17
2022-10-08T08:32:37.927Z,18.43
2022-10-08T08:35:05.138Z,18.54
2022-10-08T08:37:32.133Z,18.45
2022-10-08T08:39:59.055Z,18.53
2022-10-08T08:42:26.707Z,18.67
2022-10-08T08:45:00.426Z,18.65
2022-10-08T08:47:33.110Z,18.74
2022-10-08T08:50:15.454Z,18.60
2022-10-08T08:52:43.653Z,18.78
2022-10-08T08:55:20.296Z,18.84
2022-10-08T08:58:03.015Z,19.07
2022-10-08T09:00:41.865Z,19.31
2022-10-08T09:03:26.753Z,19.49
2022-10-08T09:05:57.808Z,19.67
2022-10-08T09:08:32.033Z,19.71
2022-10-08T09:11:04.145Z,19.57
2022-10-08T09:13:47.923Z,19.48
2022-10-08T09:16:16.099Z,19.50
2022-10-08T09:18:48.550Z,19.58
2022-10-08T09:21:16.265Z,19.58
2022-10-08T09:23:43.668Z,19.53
2022-10-08T09:26:22.153Z,19.56
2022-10-08T09:28:57.088Z,19.34
2022-10-08T09:31:27.044Z,19.46
2022-10-08T09:34:15.747Z,19.19
2022-10-08T09:37:03.411Z,19.17
2022-10-08T09:39:33.911Z,19.45
2022-10-08T09:42:17.720Z,19.38
2022-10-08T09:44:56.747Z,19.49
2022-10-08T09:47:26.336Z,19.38
2022-10-08T09:50:07.311Z,19.53
2022-10-08T09:52:36.776Z,19.64
2022-10-08T09:55:08.895Z,19.69
2022-10-08T09:57:46.124Z,19.68
2022-10-08T10:00:26.335Z,19.67
2022-10-08T10:02:55.942Z,19.85
2022-10-08T10:05:28.763Z,19.96
2022-10-08T10:07:55.914Z,19.99
2022-10-08T10:10:40.066Z,19.91
2022-10-08T10:13:12.597Z,19.93
2022-10-08T10:16:04.494Z,20.00
2022-10-08T10:18:43.883Z,20.06
2022-10-08T10:21:18.057Z,20.25
2022-10-08T10:23:53.577Z,20.56
2022-10-08T10:26:27.526Z,20.29
2022-10-08T10:29:18.862Z,20.32
2022-10-08T10:32:07.177Z,20.11
2022-10-08T10:34:38.732Z,19.85
2022-10-08T10:37:22.314Z,19.62
2022-10-08T10:40:03.723Z,19.95
2022-10-08T10:42:37.989Z,20.06
2022-10-08T10:45:13.727Z,20.36
2022-10-08T10:47:40.979Z,20.26
2022-10-08T10:50:43.547Z,20.54
2022-10-08T10:53:22.147Z,20.66
2022-10-08T10:56:13.667Z,20.71
2022-10-08T10:58:52.511Z,20.78
2022-10-08T11:01:54.701Z,21.15
2022-10-08T11:04:40.250Z,21.30
2022-10-08T11:07:25.569Z,21.32
2022-10-08T11:10:04.635Z,21.17
2022-10-08T11:12:31.689Z,21.10
2022-10-08T11:15:08.584Z,20.90
2022-10-08T11:17:56.391Z,20.34
2022-10-08T11:20:42.082Z,20.70
2022-10-08T11:23:40.887Z,20.47
2022-10-08T11:26:22.656Z,20.33
2022-10-08T11:29:01.379Z,20.31
2022-10-08T11:31:40.371Z,20.29
2022-10-08T11:34:21.674Z,20.38
2022-10-08T11:36:54.839Z,20.49
2022-10-08T11:39:55.216Z,20.65
2022-10-08T11:42:25.381Z,20.81
2022-10-08T11:44:52.339Z,20.91
2022-10-08T11:47:44.303Z,21.15
2022-10-08T11:50:24.822Z,20.60
2022-10-08T11:52:54.133Z,20.74
2022-10-08T11:55:26.748Z,20.66
2022-10-08T11:58:09.756Z,20.68
2022-10-08T12:00:41.770Z,20.71
2022-10-08T12:03:51.494Z,20.82
2022-10-08T12:06:25.265Z,20.84
2022-10-08T12:09:04.478Z,20.79
2022-10-08T12:11:39.888Z,20.77
2022-10-08T12:14:13.125Z,20.60
2022-10-08T12:16:49.392Z,20.87
2022-10-08T12:19:37.695Z,20.93
2022-10-08T12:22:25.321Z,21.02
2022-10-08T12:24:54.083Z,21.12
2022-10-08T12:27:22.613Z,21.20
2022-10-08T12:30:06.073Z,21.29
2022-10-08T12:32:53.112Z,20.96
2022-10-08T12:35:34.057Z,20.96
2022-10-08T12:38:09.054Z,20.96
2022-10-08T12:40:57.493Z,20.97
2022-10-08T12:43:42.323Z,20.82
2022-10-08T12:46:30.268Z,20.94
2022-10-08T12:49:18.466Z,21.24
2022-10-08T12:52:10.521Z,21.31
2022-10-08T12:54:45.590Z,20.97
2022-10-08T12:57:17.165Z,21.10
2022-10-08T12:59:44.088Z,21.05
2022-10-08T13:02:43.901Z,20.74
2022-10-08T13:05:24.770Z,20.45
2022-10-08T13:07:51.846Z,20.52
2022-10-08T13:10:22.682Z,20.65
2022-10-08T13:13:04.759Z,20.72
2022-10-08T13:15:34.048Z,20.67
2022-10-08T13:18:21.084Z,20.79
2022-10-08T13:21:03.185Z,20.86
2022-10-08T13:23:40.730Z,21.00
2022-10-08T13:26:45.183Z,21.06
2022-10-08T13:29:24.378Z,21.05
2022-10-08T13:31:56.390Z,21.05
2022-10-08T13:34:27.554Z,20.92
2022-10-08T13:36:58.561Z,20.81
2022-10-08T13:39:51.803Z,20.64
2022-10-08T13:42:21.787Z,20.53
2022-10-08T13:44:48.983Z,20.39
2022-10-08T13:47:18.630Z,20.30
2022-10-08T13:49:46.603Z,20.26
2022-10-08T13:52:22.306Z,20.07
2022-10-08T13:54:52.975Z,19.98
2022-10-08T13:57:20.027Z,19.90
2022-10-08T13:59:46.900Z,19.98
2022-10-08T14:02:14.661Z,19.92
2022-10-08T14:04:42.019Z,20.01
2022-10-08T14:07:30.503Z,20.12
2022-10-08T14:10:00.583Z,20.10
2022-10-08T14:12:32.480Z,20.17
2022-10-08T14:15:01.084Z,20.19
2022-10-08T14:17:28.149Z,20.17
2022-10-08T14:19:55.629Z,20.14
2022-10-08T14:22:23.271Z,20.26
2022-10-08T14:24:50.297Z,20.14
2022-10-08T14:27:17.560Z,20.12
2022-10-08T14:29:44.491Z,20.21
2022-10-08T14:32:11.939Z,20.26
2022-10-08T14:34:39.481Z,20.22
2022-10-08T14:37:06.995Z,20.27
2022-10-08T14:39:33.923Z,20.21
2022-10-08T14:42:00.871Z,20.16
2022-10-08T14:44:27.957Z,20.10
2022-10-08T14:46:55.033Z,20.08
2022-10-08T14:49:22.298Z,20.05
2022-10-08T14:51:49.328Z,20.08
2022-10-08T14:54:18.153Z,20.04
2022-10-08T14:56:46.259Z,20.04
2022-10-08T14:59:13.754Z,19.98
2022-10-08T15:01:41.105Z,19.86
2022-10-08T15:04:08.191Z,19.75
2022-10-08T15:06:35.320Z,19.82
2022-10-08T15:09:02.250Z,19.72
2022-10-08T15:11:29.311Z,19.60
2022-10-08T15:13:56.174Z,19.59
2022-10-08T15:16:23.721Z,19.46
2022-10-08T15:18:50.732Z,19.41
2022-10-08T15:21:18.954Z,19.33
2022-10-08T15:23:45.788Z,19.22
2022-10-08T15:26:15.960Z,19.17
2022-10-08T15:28:44.835Z,19.16
2022-10-08T15:31:13.521Z,19.10
2022-10-08T15:33:42.598Z,18.97
2022-10-08T15:36:36.276Z,18.91
2022-10-08T15:39:15.172Z,18.86
2022-10-08T15:41:45.111Z,18.77
2022-10-08T15:44:22.375Z,18.75
2022-10-08T15:46:59.090Z,18.63
2022-10-08T15:49:40.505Z,18.53
2022-10-08T15:52:12.435Z,18.49
2022-10-08T15:54:40.654Z,18.38
2022-10-08T15:57:09.503Z,18.32
2022-10-08T15:59:36.990Z,18.23
2022-10-08T16:02:05.089Z,18.09
2022-10-08T16:04:32.061Z,17.94
2022-10-08T16:06:59.174Z,17.79
2022-10-08T16:09:26.054Z,17.65
2022-10-08T16:11:55.429Z,17.52
2022-10-08T16:14:26.378Z,17.44
2022-10-08T16:16:53.950Z,17.33
2022-10-08T16:19:24.339Z,17.25
2022-10-08T16:21:53.707Z,17.11
2022-10-08T16:24:20.824Z,16.97
2022-10-08T16:26:48.953Z,16.91
2022-10-08T16:29:17.550Z,16.83
2022-10-08T16:31:45.885Z,16.71
2022-10-08T16:34:37.449Z,16.64
2022-10-08T16:37:05.008Z,16.58
2022-10-08T16:39:59.604Z,16.53
2022-10-08T16:42:26.600Z,16.38
2022-10-08T16:44:53.342Z,16.18
2022-10-08T16:47:23.151Z,16.21
2022-10-08T16:49:49.933Z,16.10
2022-10-08T16:52:16.734Z,16.03
2022-10-08T16:54:43.588Z,15.96
2022-10-08T16:57:10.498Z,15.83
2022-10-08T16:59:37.494Z,15.76
2022-10-08T17:02:04.335Z,15.69
2022-10-08T17:04:38.911Z,15.65
2022-10-08T17:07:07.562Z,15.62
2022-10-08T17:09:35.477Z,15.51
2022-10-08T17:12:02.527Z,15.50
2022-10-08T17:14:31.190Z,15.44
2022-10-08T17:16:58.082Z,15.32
2022-10-08T17:19:24.962Z,15.24
2022-10-08T17:21:52.101Z,15.22
2022-10-08T17:24:18.954Z,15.18
2022-10-08T17:26:45.810Z,15.09
2022-10-08T17:29:13.162Z,14.99
2022-10-08T17:31:40.598Z,14.93
2022-10-08T17:34:07.845Z,14.84
2022-10-08T17:36:37.731Z,14.80
2022-10-08T17:39:07.523Z,14.71
2022-10-08T17:41:36.526Z,14.57
2022-10-08T17:44:05.878Z,14.56
2022-10-08T17:46:36.395Z,14.49
2022-10-08T17:49:03.902Z,14.45
2022-10-08T17:51:31.270Z,14.42
2022-10-08T17:54:07.510Z,14.38
2022-10-08T17:56:35.069Z,14.26
2022-10-08T17:59:05.087Z,14.24
2022-10-08T18:01:35.143Z,14.17
2022-10-08T18:04:04.772Z,14.14
2022-10-08T18:06:33.095Z,14.06
2022-10-08T18:09:02.479Z,14.05
2022-10-08T18:11:31.277Z,13.97
2022-10-08T18:13:58.827Z,14.02
2022-10-08T18:16:25.799Z,13.94
2022-10-08T18:18:52.934Z,13.93
2022-10-08T18:21:20.384Z,13.93
2022-10-08T18:23:48.467Z,13.85
2022-10-08T18:26:18.090Z,13.92
2022-10-08T18:28:46.602Z,13.86
2022-10-08T18:31:15.678Z,13.79
2022-10-08T18:33:45.774Z,13.80
2022-10-08T18:36:22.635Z,13.78
2022-10-08T18:38:57.395Z,13.69
2022-10-08T18:41:27.685Z,13.60
2022-10-08T18:43:59.416Z,13.61
2022-10-08T18:46:28.493Z,13.59
2022-10-08T18:48:55.829Z,13.51
2022-10-08T18:51:28.488Z,13.47
2022-10-08T18:53:56.972Z,13.48
2022-10-08T18:56:34.403Z,13.45
2022-10-08T18:59:04.554Z,13.38
2022-10-08T19:01:35.033Z,13.39
2022-10-08T19:04:04.458Z,13.27
2022-10-08T19:06:35.016Z,13.21
2022-10-08T19:09:03.302Z,13.17
2022-10-08T19:11:37.713Z,13.08
2022-10-08T19:14:10.991Z,12.96
2022-10-08T19:16:39.684Z,12.96
2022-10-08T19:19:09.757Z,12.89
2022-10-08T19:21:38.731Z,12.79
2022-10-08T19:24:07.203Z,12.75
2022-10-08T19:26:34.318Z,12.75
2022-10-08T19:29:01.156Z,12.73
2022-10-08T19:31:30.901Z,12.68
2022-10-08T19:34:08.096Z,12.65
2022-10-08T19:36:37.656Z,12.60
2022-10-08T19:39:04.847Z,12.59
2022-10-08T19:41:31.981Z,12.48
2022-10-08T19:43:59.554Z,12.48
2022-10-08T19:46:27.826Z,12.45
2022-10-08T19:48:58.012Z,12.41
2022-10-08T19:51:26.631Z,12.34
2022-10-08T19:53:54.439Z,12.26
2022-10-08T19:56:22.764Z,12.24
2022-10-08T19:58:56.051Z,12.18
2022-10-08T20:01:28.812Z,12.11
2022-10-08T20:03:57.710Z,12.02
2022-10-08T20:06:29.501Z,11.99
2022-10-08T20:09:08.204Z,11.94
2022-10-08T20:11:35.242Z,11.84
2022-10-08T20:14:21.532Z,11.80
2022-10-08T20:16:48.736Z,11.78
2022-10-08T20:19:19.431Z,11.81
2022-10-08T20:21:47.739Z,11.79
2022-10-08T20:24:15.249Z,11.78
2022-10-08T20:26:43.471Z,11.72
2022-10-08T20:29:16.075Z,11.55
2022-10-08T20:31:46.701Z,11.63
2022-10-08T20:34:19.474Z,11.59
2022-10-08T20:36:47.521Z,11.55
2022-10-08T20:39:16.114Z,11.48
2022-10-08T20:41:43.278Z,11.43
2022-10-08T20:44:10.681Z,11.47
2022-10-08T20:46:38.333Z,11.47
2022-10-08T20:49:06.343Z,11.47
2022-10-08T20:51:33.878Z,11.48
2022-10-08T20:54:03.354Z,11.50
2022-10-08T20:56:35.852Z,11.51
2022-10-08T20:59:06.680Z,11.34
2022-10-08T21:01:35.842Z,11.44
2022-10-08T21:04:03.118Z,11.37
2022-10-08T21:06:42.496Z,11.30
2022-10-08T21:09:09.951Z,11.24
2022-10-08T21:11:37.464Z,11.20
2022-10-08T21:14:05.875Z,11.12
2022-10-08T21:16:35.837Z,11.10
2022-10-08T21:19:05.699Z,11.08
2022-10-08T21:21:34.471Z,11.07
2022-10-08T21:24:01.392Z,11.05
2022-10-08T21:26:37.227Z,11.09
2022-10-08T21:29:10.245Z,10.91
2022-10-08T21:31:39.444Z,10.99
2022-10-08T21:34:06.928Z,10.92
2022-10-08T21:36:39.341Z,10.93
2022-10-08T21:39:07.729Z,11.00
2022-10-08T21:41:36.724Z,10.67
2022-10-08T21:44:06.823Z,10.88
2022-10-08T21:46:37.283Z,10.84
2022-10-08T21:49:10.945Z,10.78
2022-10-08T21:51:38.042Z,10.69
2022-10-08T21:54:06.491Z,10.71
2022-10-08T21:56:36.310Z,10.67
2022-10-08T21:59:05.247Z,10.67
2022-10-08T22:01:48.561Z,10.69
2022-10-08T22:04:17.386Z,10.68
2022-10-08T22:06:49.991Z,10.64
2022-10-08T22:09:29.578Z,10.68
2022-10-08T22:11:58.126Z,10.63
2022-10-08T22:14:25.805Z,10.59
2022-10-08T22:16:52.819Z,10.56
2022-10-08T22:19:19.803Z,10.59
2022-10-08T22:21:46.967Z,10.57
2022-10-08T22:24:13.957Z,10.55
2022-10-08T22:26:43.940Z,10.49
2022-10-08T22:29:10.894Z,10.50
2022-10-08T22:31:38.614Z,10.51
2022-10-08T22:34:06.165Z,10.52
2022-10-08T22:36:36.567Z,10.50
2022-10-08T22:39:03.469Z,10.45
2022-10-08T22:41:32.506Z,10.43
2022-10-08T22:44:00.293Z,10.45
2022-10-08T22:46:35.062Z,10.48
2022-10-08T22:49:05.811Z,10.47
2022-10-08T22:51:32.693Z,10.45
2022-10-08T22:53:59.820Z,10.45
2022-10-08T22:56:29.793Z,10.42
2022-10-08T22:58:58.745Z,10.35
2022-10-08T23:01:27.423Z,10.34
2022-10-08T23:03:54.679Z,10.33
2022-10-08T23:06:24.442Z,10.28
2022-10-08T23:08:56.758Z,10.18
2022-10-08T23:11:24.213Z,10.15
2022-10-08T23:13:52.961Z,10.19
2022-10-08T23:16:20.385Z,10.18
2022-10-08T23:18:55.963Z,10.17
2022-10-08T23:21:23.572Z,10.11
2022-10-08T23:23:51.958Z,10.13
2022-10-08T23:26:19.039Z,10.09
2022-10-08T23:28:50.481Z,10.00
2022-10-08T23:31:20.428Z,9.92
2022-10-08T23:33:49.081Z,9.85
2022-10-08T23:36:40.424Z,9.85
2022-10-08T23:39:09.473Z,9.72
2022-10-08T23:41:37.552Z,9.64
2022-10-08T23:44:05.617Z,9.57
2022-10-08T23:46:32.858Z,9.54
2022-10-08T23:49:00.016Z,9.48
2022-10-08T23:51:28.583Z,9.49
2022-10-08T23:53:55.642Z,9.39
2022-10-08T23:56:22.728Z,9.41
2022-10-08T23:58:49.618Z,9.43
